Weather reports worldwide

Advertisment
Manchester/Intl, United Kingdom (3334): temperature & dewpoint: 11.12.2017 23:00:00 - 17.12.2017 23:00:00 (GMT)Manchester/Intl, United Kingdom (3334): wind speed: 11.12.2017 23:00:00 - 17.12.2017 23:00:00 (GMT)Manchester/Intl, United Kingdom (3334): wind direction: 11.12.2017 23:00:00 - 17.12.2017 23:00:00 (GMT)Manchester/Intl, United Kingdom (3334): visibility: 11.12.2017 23:00:00 - 17.12.2017 23:00:00 (GMT)
Date & Time tt [°C] td [°C] ff [km/h] ff [kn] dd vv [km]
17.12.2017 23:00:00 5,0 3,0 9 5 WSW 10
17.12.2017 22:00:00 6,0 3,0 15 8 WNW 10
17.12.2017 21:00:00 7,0 4,0 18 10 WNW 10
17.12.2017 20:00:00 7,0 4,0 16 9 WNW 10
17.12.2017 19:00:00 8,0 5,0 16 9 NW 10
17.12.2017 18:00:00 10,0 7,0 24 13 WNW 10
17.12.2017 17:00:00 10,0 9,0 22 12 W 10
17.12.2017 16:00:00 9,0 9,0 15 8 WSW 2,0
17.12.2017 15:00:00 8,0 8,0 13 7 SSW 2,5
17.12.2017 14:00:00 7,0 7,0 13 7 SSW 3,5
17.12.2017 13:00:00 6,0 6,0 13 7 S 4,0
17.12.2017 12:00:00 6,0 5,0 13 7 S 5
17.12.2017 11:00:00 5,0 4,0 11 6 S 10
17.12.2017 10:00:00 5,0 4,0 11 6 S 7
17.12.2017 09:00:00 4,0 3,0 9 5 S 10
17.12.2017 08:00:00 4,0 3,0 9 5 S 10
17.12.2017 07:00:00 3,0 2,0 8 4 S 10
17.12.2017 06:00:00 2,0 2,0 8 4 S 10
17.12.2017 05:00:00 2,0 1,0 5 3 - 10
17.12.2017 04:00:00 0,0 0,0 2 1 - 1,9
17.12.2017 03:00:00 0,0 0,0 4 2 E 0,2
17.12.2017 02:00:00 1,0 0,0 2 1 - 0,1
17.12.2017 01:00:00 1,0 1,0 4 2 - 0,1
17.12.2017 00:00:00 1,0 0,0 4 2 - 0,4
16.12.2017 23:00:00 1,0 1,0 4 2 SSE 0,2
16.12.2017 22:00:00 1,0 1,0 4 2 - 0,1
16.12.2017 21:00:00 1,0 0,0 4 2 - 0,1
16.12.2017 20:00:00 0,0 0,0 4 2 E 0,2
16.12.2017 19:00:00 2,0 2,0 2 1 - 5
16.12.2017 18:00:00 1,0 1,0 2 1 - 3,3
16.12.2017 17:00:00 2,0 1,0 4 2 ESE 0,5
16.12.2017 16:00:00 2,0 1,0 4 2 W 0,2
16.12.2017 15:00:00 2,0 1,0 4 2 - 0,4
16.12.2017 14:00:00 3,0 2,0 4 2 SSE 4,3
16.12.2017 13:00:00 2,0 2,0 4 2 - 6
16.12.2017 12:00:00 2,0 1,0 4 2 - 6
16.12.2017 11:00:00 1,0 1,0 4 2 - 6
16.12.2017 10:00:00 1,0 0,0 5 3 SE 3,5
16.12.2017 09:00:00 0,0 -1,0 8 4 SSE 10
16.12.2017 08:00:00 -1,0 -2,0 8 4 SSE 10
16.12.2017 07:00:00 -2,0 -3,0 4 2 - 10
16.12.2017 06:00:00 1,0 -2,0 4 2 - 10
16.12.2017 05:00:00 -2,0 -3,0 5 3 - 10
16.12.2017 04:00:00 -1,0 -2,0 4 2 - 10
16.12.2017 03:00:00 -2,0 -3,0 4 2 - 10
16.12.2017 02:00:00 -1,0 -2,0 2 1 - 10
16.12.2017 01:00:00 0,0 -3,0 4 2 WNW 10
16.12.2017 00:00:00 1,0 -1,0 8 4 W 10
15.12.2017 23:00:00 2,0 -1,0 9 5 WNW 10
15.12.2017 22:00:00 2,0 -1,0 2 1 - 10
15.12.2017 21:00:00 2,0 -1,0 4 2 - 10
15.12.2017 20:00:00 3,0 -1,0 9 5 WNW 10
15.12.2017 19:00:00 4,0 -1,0 15 8 NW 10
15.12.2017 18:00:00 4,0 0,0 9 5 WNW 10
15.12.2017 17:00:00 4,0 0,0 11 6 NW 10
15.12.2017 16:00:00 5,0 1,0 16 9 NNW 10
15.12.2017 15:00:00 5,0 2,0 15 8 NNW 10
15.12.2017 14:00:00 5,0 2,0 13 7 NW 10
15.12.2017 13:00:00 5,0 2,0 16 9 NW 10
15.12.2017 12:00:00 5,0 1,0 13 7 NW 10
15.12.2017 11:00:00 3,0 1,0 13 7 NNW 10
15.12.2017 10:00:00 3,0 0,0 13 7 WNW 10
15.12.2017 09:00:00 2,0 0,0 8 4 N 10
15.12.2017 08:00:00 2,0 0,0 16 9 WNW 10
15.12.2017 07:00:00 2,0 0,0 16 9 NW 10
15.12.2017 06:00:00 2,0 0,0 18 10 NW 10
15.12.2017 05:00:00 2,0 0,0 9 5 NW 10
15.12.2017 04:00:00 2,0 1,0 8 4 NNW 10
15.12.2017 03:00:00 2,0 1,0 2 1 - 10
15.12.2017 02:00:00 2,0 2,0 2 1 - 10
15.12.2017 01:00:00 3,0 2,0 9 5 SW 10
15.12.2017 00:00:00 4,0 2,0 18 10 W 10
14.12.2017 23:00:00 4,0 2,0 11 6 NW 8
14.12.2017 22:00:00 2,0 2,0 9 5 S 10
14.12.2017 21:00:00 3,0 1,0 15 8 NNW 10
14.12.2017 20:00:00 3,0 2,0 11 6 W 10
14.12.2017 19:00:00 3,0 2,0 11 6 SW 10
14.12.2017 18:00:00 4,0 3,0 16 9 WSW 10
14.12.2017 17:00:00 5,0 2,0 16 9 SW 8
14.12.2017 16:00:00 5,0 2,0 16 9 SW 10
14.12.2017 15:00:00 5,0 2,0 21 11 SW 10
14.12.2017 14:00:00 5,0 1,0 24 13 WSW 10
14.12.2017 13:00:00 5,0 1,0 26 14 SW 10
14.12.2017 12:00:00 5,0 2,0 28 15 WSW 10
14.12.2017 11:00:00 4,0 2,0 18 10 SW 10
14.12.2017 10:00:00 4,0 2,0 24 13 SW 10
14.12.2017 09:00:00 3,0 1,0 18 10 SSW 10
14.12.2017 08:00:00 3,0 1,0 13 7 SSW 10
14.12.2017 07:00:00 3,0 2,0 16 9 SSW 10
14.12.2017 06:00:00 4,0 2,0 26 14 WSW 10
14.12.2017 05:00:00 2,0 2,0 9 5 WSW 7
14.12.2017 04:00:00 4,0 3,0 24 13 WSW 6
14.12.2017 03:00:00 4,0 2,0 34 18 W 10
14.12.2017 02:00:00 4,0 2,0 28 15 W 10
14.12.2017 01:00:00 3,0 2,0 28 15 W 9
14.12.2017 00:00:00 2,0 1,0 24 13 WSW 10
13.12.2017 23:00:00 4,0 0,0 21 11 W 10
13.12.2017 22:00:00 3,0 2,0 16 9 W 9
13.12.2017 21:00:00 1,0 0,0 11 6 SW 8
13.12.2017 20:00:00 3,0 1,0 18 10 WSW 10
13.12.2017 19:00:00 3,0 0,0 9 5 S 10
13.12.2017 18:00:00 3,0 1,0 9 5 S 10
13.12.2017 17:00:00 4,0 1,0 22 12 WSW 10
13.12.2017 16:00:00 5,0 2,0 18 10 WSW 10
13.12.2017 15:00:00 5,0 2,0 21 11 W 10
13.12.2017 14:00:00 6,0 4,0 21 11 WSW 10
13.12.2017 13:00:00 5,0 4,0 21 11 WSW 10
13.12.2017 12:00:00 5,0 4,0 16 9 SSW 6
13.12.2017 11:00:00 6,0 4,0 16 9 S 10
13.12.2017 10:00:00 5,0 4,0 15 8 SSW 10
13.12.2017 09:00:00 5,0 3,0 13 7 SSW 10
13.12.2017 08:00:00 4,0 3,0 9 5 S 10
13.12.2017 07:00:00 4,0 3,0 9 5 S 10
13.12.2017 06:00:00 4,0 3,0 8 4 S 10
13.12.2017 05:00:00 4,0 2,0 9 5 S 10
13.12.2017 04:00:00 3,0 2,0 9 5 S 10
13.12.2017 03:00:00 3,0 2,0 11 6 SSW 9
13.12.2017 02:00:00 3,0 2,0 9 5 S 7
13.12.2017 01:00:00 3,0 2,0 9 5 S 8
13.12.2017 00:00:00 3,0 2,0 11 6 SSW 7
12.12.2017 23:00:00 3,0 2,0 16 9 S 7
12.12.2017 22:00:00 3,0 2,0 16 9 S 5
12.12.2017 21:00:00 3,0 2,0 15 8 S 10
12.12.2017 20:00:00 3,0 1,0 13 7 S 10
12.12.2017 19:00:00 2,0 0,0 11 6 S 10
12.12.2017 18:00:00 2,0 0,0 8 4 S 10
12.12.2017 17:00:00 2,0 0,0 11 6 S 10
12.12.2017 16:00:00 2,0 0,0 11 6 S 10
12.12.2017 15:00:00 1,0 -1,0 11 6 S 10
12.12.2017 14:00:00 1,0 -1,0 9 5 S 10
12.12.2017 13:00:00 1,0 -1,0 9 5 S 10
12.12.2017 12:00:00 1,0 -2,0 9 5 S 10
12.12.2017 11:00:00 0,0 -2,0 8 4 S 10
12.12.2017 10:00:00 -1,0 -2,0 5 3 - 8
12.12.2017 09:00:00 -3,0 -3,0 5 3 - 6
12.12.2017 08:00:00 -4,0 -5,0 2 1 - 6
12.12.2017 07:00:00 -4,0 -4,0 8 4 SE 7
12.12.2017 06:00:00 -7,0 -8,0 4 2 SW 10
12.12.2017 05:00:00 -7,0 -8,0 4 2 - 10
12.12.2017 04:00:00 -6,0 -7,0 5 3 E 8
12.12.2017 03:00:00 -6,0 -7,0 5 3 S 10
12.12.2017 02:00:00 -5,0 -6,0 5 3 SE 10
12.12.2017 01:00:00 -5,0 -6,0 5 3 SE 10
12.12.2017 00:00:00 -4,0 -5,0 5 3 ESE 10
11.12.2017 23:00:00 -4,0 -6,0 4 2 - 10

tt = temperature
td = dewpoint
ff = wind speed
dd = wind direction
vv = visibility

Next stations